createdAt,value
2022-12-16T00:01:26.838Z,14.43
2022-12-16T00:03:55.865Z,14.30
2022-12-16T00:06:24.904Z,14.97
2022-12-16T00:08:52.260Z,13.13
2022-12-16T00:11:20.109Z,14.60
2022-12-16T00:13:47.576Z,12.70
2022-12-16T00:16:16.292Z,14.03
2022-12-16T00:18:44.460Z,13.47
2022-12-16T00:21:11.900Z,13.13
2022-12-16T00:23:39.524Z,12.13
2022-12-16T00:26:07.382Z,13.50
2022-12-16T00:28:35.601Z,12.50
2022-12-16T00:31:03.175Z,13.90
2022-12-16T00:33:31.115Z,14.27
2022-12-16T00:35:58.851Z,12.43
2022-12-16T00:38:26.515Z,13.47
2022-12-16T00:40:54.175Z,12.90
2022-12-16T00:43:22.498Z,11.60
2022-12-16T00:45:49.889Z,12.13
2022-12-16T00:48:19.648Z,12.93
2022-12-16T00:50:49.779Z,12.87
2022-12-16T00:53:20.752Z,12.73
2022-12-16T00:55:48.085Z,12.00
2022-12-16T00:58:15.885Z,12.00
2022-12-16T01:00:43.636Z,12.33
2022-12-16T01:03:13.386Z,11.87
2022-12-16T01:05:44.388Z,12.20
2022-12-16T01:08:11.723Z,10.33
2022-12-16T01:10:39.027Z,10.47
2022-12-16T01:13:06.756Z,10.07
2022-12-16T01:15:34.094Z,11.47
2022-12-16T01:18:01.446Z,10.67
2022-12-16T01:20:29.070Z,10.80
2022-12-16T01:22:56.437Z,10.63
2022-12-16T01:25:23.760Z,11.03
2022-12-16T01:27:51.466Z,10.87
2022-12-16T01:30:20.331Z,10.30
2022-12-16T01:32:47.695Z,9.30
2022-12-16T01:35:50.970Z,10.30
2022-12-16T01:38:02.756Z,9.10
2022-12-16T01:40:30.400Z,9.60
2022-12-16T01:42:57.701Z,9.60
2022-12-16T01:45:24.875Z,9.77
2022-12-16T01:47:53.603Z,9.80
2022-12-16T01:50:21.519Z,8.10
2022-12-16T01:52:51.378Z,9.70
2022-12-16T01:55:24.990Z,7.90
2022-12-16T01:58:14.479Z,9.47
2022-12-16T02:00:42.305Z,8.10
2022-12-16T02:03:09.997Z,8.87
2022-12-16T02:05:40.656Z,8.90
2022-12-16T02:08:18.162Z,9.57
2022-12-16T02:10:46.978Z,8.90
2022-12-16T02:13:42.077Z,7.93
2022-12-16T02:16:39.134Z,9.15
2022-12-16T02:19:42.524Z,8.93
2022-12-16T02:22:25.292Z,8.23
2022-12-16T02:25:23.476Z,8.43
2022-12-16T02:28:06.189Z,8.13
2022-12-16T02:30:36.263Z,7.00
2022-12-16T02:33:41.562Z,8.20
2022-12-16T02:36:11.845Z,7.30
2022-12-16T02:38:55.898Z,7.77
2022-12-16T02:41:29.304Z,8.37
2022-12-16T02:43:59.018Z,7.70
2022-12-16T02:46:27.605Z,7.43
2022-12-16T02:48:55.214Z,7.97
2022-12-16T02:51:24.094Z,8.47
2022-12-16T02:53:52.181Z,7.83
2022-12-16T02:56:39.492Z,8.47
2022-12-16T02:59:07.031Z,9.43
2022-12-16T03:01:37.710Z,10.00
2022-12-16T03:04:11.276Z,10.63
2022-12-16T03:06:39.137Z,9.77
2022-12-16T03:09:08.163Z,10.37
2022-12-16T03:11:35.551Z,9.90
2022-12-16T03:14:03.146Z,10.10
2022-12-16T03:16:31.657Z,10.77
2022-12-16T03:19:04.172Z,11.10
2022-12-16T03:21:38.452Z,9.33
2022-12-16T03:24:08.066Z,8.73
2022-12-16T03:26:39.394Z,9.00
2022-12-16T03:29:24.780Z,9.97
2022-12-16T03:31:57.581Z,10.68
2022-12-16T03:34:45.127Z,9.97
2022-12-16T03:37:13.335Z,9.40
2022-12-16T03:39:48.680Z,9.33
2022-12-16T03:42:16.416Z,9.20
2022-12-16T03:44:44.548Z,8.03
2022-12-16T03:47:14.980Z,8.10
2022-12-16T03:49:46.031Z,7.33
2022-12-16T03:52:13.399Z,8.10
2022-12-16T03:54:40.808Z,7.33
2022-12-16T03:57:14.798Z,7.43
2022-12-16T03:59:43.181Z,7.77
2022-12-16T04:02:11.168Z,7.83
2022-12-16T04:04:38.956Z,6.63
2022-12-16T04:07:21.898Z,7.93
2022-12-16T04:09:49.519Z,7.57
2022-12-16T04:12:35.533Z,8.67
2022-12-16T04:15:22.681Z,8.15
2022-12-16T04:18:08.639Z,9.43
2022-12-16T04:20:56.963Z,8.60
2022-12-16T04:23:43.833Z,8.60
2022-12-16T04:26:11.463Z,8.30
2022-12-16T04:28:38.820Z,9.57
2022-12-16T04:31:06.421Z,9.67
2022-12-16T04:33:53.036Z,8.77
2022-12-16T04:36:38.901Z,8.73
2022-12-16T04:39:25.406Z,7.85
2022-12-16T04:42:12.296Z,8.90
2022-12-16T04:44:58.894Z,9.47
2022-12-16T04:47:45.431Z,10.35
2022-12-16T04:50:31.918Z,9.07
2022-12-16T04:53:17.848Z,8.30
2022-12-16T04:56:04.964Z,9.73
2022-12-16T04:58:51.135Z,9.37
2022-12-16T05:01:37.652Z,9.77
2022-12-16T05:07:09.806Z,9.30
2022-12-16T05:09:55.850Z,9.48
2022-12-16T05:12:42.400Z,9.88
2022-12-16T05:15:28.442Z,10.30
2022-12-16T05:18:14.970Z,10.43
2022-12-16T05:21:00.977Z,11.60
2022-12-16T05:23:47.455Z,13.15
2022-12-16T05:26:33.510Z,11.80
2022-12-16T05:29:19.938Z,11.75
2022-12-16T05:32:06.105Z,11.88
2022-12-16T05:37:37.864Z,11.32
2022-12-16T05:40:24.419Z,11.27
2022-12-16T05:43:16.360Z,12.10
2022-12-16T05:46:03.432Z,14.00
2022-12-16T05:51:35.626Z,13.27
2022-12-16T05:54:21.790Z,13.52
2022-12-16T05:59:53.998Z,13.10
2022-12-16T06:02:40.514Z,13.73
2022-12-16T06:05:27.393Z,14.30
2022-12-16T06:08:13.475Z,16.45
2022-12-16T06:10:59.948Z,16.40
2022-12-16T06:13:45.827Z,12.95
2022-12-16T06:16:32.736Z,13.43
2022-12-16T06:19:19.058Z,13.40
2022-12-16T06:22:05.605Z,15.50
2022-12-16T06:24:51.715Z,14.30
2022-12-16T06:27:38.192Z,14.20
2022-12-16T06:30:24.775Z,13.10
2022-12-16T06:33:11.480Z,15.33
2022-12-16T06:41:29.040Z,14.55
2022-12-16T06:44:15.664Z,16.73
2022-12-16T06:52:33.324Z,15.20
2022-12-16T06:55:19.853Z,16.00
2022-12-16T06:58:09.838Z,14.65
2022-12-16T07:00:56.390Z,16.33
2022-12-16T07:03:43.074Z,17.83
2022-12-16T07:06:29.806Z,15.97
2022-12-16T07:09:15.692Z,16.37
2022-12-16T07:12:02.357Z,18.15
2022-12-16T07:20:20.600Z,17.95
2022-12-16T07:23:13.141Z,17.80
2022-12-16T07:26:03.825Z,16.10
2022-12-16T07:31:36.243Z,17.40
2022-12-16T07:34:22.643Z,21.07
2022-12-16T07:37:09.887Z,24.33
2022-12-16T07:39:56.031Z,20.80
2022-12-16T07:42:47.175Z,23.08
2022-12-16T07:45:33.755Z,21.70
2022-12-16T07:48:19.983Z,22.37
2022-12-16T07:53:51.813Z,24.02
2022-12-16T07:56:38.254Z,21.00
2022-12-16T07:59:24.245Z,21.48
2022-12-16T08:02:10.947Z,20.67
2022-12-16T08:04:58.771Z,22.37
2022-12-16T08:07:45.365Z,21.13
2022-12-16T08:10:31.941Z,21.70
2022-12-16T08:13:32.203Z,22.25
2022-12-16T08:16:20.512Z,20.20
2022-12-16T08:19:11.076Z,19.33
2022-12-16T08:21:58.685Z,20.43
2022-12-16T08:24:51.275Z,22.97
2022-12-16T08:27:39.835Z,23.97
2022-12-16T08:30:26.517Z,23.70
2022-12-16T08:33:18.768Z,24.47
2022-12-16T08:36:06.579Z,23.43
2022-12-16T08:38:53.154Z,21.50
2022-12-16T08:41:39.427Z,22.50
2022-12-16T08:44:25.773Z,22.23
2022-12-16T08:47:11.656Z,22.00
2022-12-16T08:50:01.605Z,21.70
2022-12-16T08:52:50.273Z,21.13
2022-12-16T08:55:36.821Z,21.83
2022-12-16T08:58:22.719Z,21.85
2022-12-16T09:01:09.289Z,22.00
2022-12-16T09:03:55.657Z,21.77
2022-12-16T09:06:42.069Z,22.33
2022-12-16T09:09:29.142Z,20.88
2022-12-16T09:12:15.878Z,23.17
2022-12-16T09:17:48.360Z,22.30
2022-12-16T09:20:34.357Z,24.05
2022-12-16T09:23:21.369Z,25.67
2022-12-16T09:26:07.470Z,22.27
2022-12-16T09:31:40.999Z,22.55
2022-12-16T09:34:27.326Z,23.33
2022-12-16T09:37:13.359Z,24.50
2022-12-16T09:39:59.671Z,24.80
2022-12-16T09:43:13.343Z,25.85
2022-12-16T09:46:02.399Z,23.80
2022-12-16T09:49:01.331Z,26.93
2022-12-16T09:51:47.546Z,27.30
2022-12-16T09:54:35.047Z,27.13
2022-12-16T09:57:24.468Z,28.33
2022-12-16T10:00:14.235Z,28.30
2022-12-16T10:03:06.802Z,27.30
2022-12-16T10:06:35.555Z,25.12
2022-12-16T10:09:37.125Z,28.77
2022-12-16T10:12:29.341Z,28.03
2022-12-16T10:15:26.428Z,25.00
2022-12-16T10:18:12.592Z,26.53
2022-12-16T10:21:01.519Z,24.50
2022-12-16T10:24:25.893Z,24.40
2022-12-16T10:27:17.336Z,28.60
2022-12-16T10:30:03.361Z,26.07
2022-12-16T10:35:40.350Z,30.47
2022-12-16T10:38:44.326Z,28.73
2022-12-16T10:41:47.037Z,26.83
2022-12-16T10:44:43.410Z,25.33
2022-12-16T10:47:29.911Z,28.25
2022-12-16T10:50:16.388Z,34.80
2022-12-16T10:53:16.356Z,31.92
2022-12-16T10:56:15.091Z,35.90
2022-12-16T10:59:13.779Z,44.37
2022-12-16T11:02:00.437Z,33.27
2022-12-16T11:04:56.468Z,32.30
2022-12-16T11:11:00.952Z,32.93
2022-12-16T11:13:49.374Z,32.73
2022-12-16T11:16:45.670Z,33.87
2022-12-16T11:19:38.612Z,29.83
2022-12-16T11:22:43.531Z,28.77
2022-12-16T11:25:35.749Z,29.33
2022-12-16T11:28:33.228Z,30.93
2022-12-16T11:31:26.566Z,31.67
2022-12-16T11:34:12.649Z,29.87
2022-12-16T11:36:59.314Z,29.25
2022-12-16T11:42:39.545Z,25.37
2022-12-16T11:45:26.119Z,25.03
2022-12-16T11:48:17.723Z,25.00
2022-12-16T11:51:10.127Z,28.63
2022-12-16T11:54:10.746Z,27.50
2022-12-16T11:57:01.859Z,28.60
2022-12-16T12:00:04.122Z,24.87
2022-12-16T12:03:00.729Z,25.93
2022-12-16T12:05:57.515Z,28.87
2022-12-16T12:09:12.871Z,29.30
2022-12-16T12:12:04.646Z,29.75
2022-12-16T12:14:53.396Z,29.17
2022-12-16T12:17:48.941Z,27.73
2022-12-16T12:20:41.169Z,33.00
2022-12-16T12:23:29.638Z,40.17
2022-12-16T12:26:30.460Z,36.83
2022-12-16T12:29:37.860Z,37.23
2022-12-16T12:32:33.100Z,35.97
2022-12-16T12:35:51.630Z,34.90
2022-12-16T12:38:39.958Z,31.17
2022-12-16T12:41:46.358Z,28.73
2022-12-16T12:44:48.885Z,23.60
2022-12-16T12:47:35.685Z,19.80
2022-12-16T12:50:38.255Z,18.50
2022-12-16T12:53:37.796Z,16.63
2022-12-16T12:56:32.111Z,17.87
2022-12-16T12:59:21.296Z,15.33
2022-12-16T13:02:07.454Z,14.33
2022-12-16T13:04:53.860Z,13.67
2022-12-16T13:07:44.162Z,15.20
2022-12-16T13:10:31.355Z,14.83
2022-12-16T13:13:36.199Z,14.00
2022-12-16T13:16:23.580Z,14.85
2022-12-16T13:19:52.324Z,13.37
2022-12-16T13:22:55.285Z,14.97
2022-12-16T13:26:09.960Z,14.53
2022-12-16T13:28:57.905Z,13.55
2022-12-16T13:31:44.500Z,13.40
2022-12-16T13:34:34.097Z,13.90
2022-12-16T13:37:29.830Z,13.70
2022-12-16T13:40:24.766Z,14.37
2022-12-16T13:43:13.841Z,14.43
2022-12-16T13:46:01.977Z,15.10
2022-12-16T13:48:58.578Z,18.20
2022-12-16T13:51:57.263Z,15.80
2022-12-16T13:54:49.723Z,13.80
2022-12-16T13:57:38.041Z,18.83
2022-12-16T14:00:25.064Z,20.97
2022-12-16T14:03:11.282Z,19.43
2022-12-16T14:06:10.762Z,13.13
2022-12-16T14:09:07.970Z,15.67
2022-12-16T14:12:18.262Z,16.98
2022-12-16T14:15:10.181Z,20.67
2022-12-16T14:18:01.466Z,17.37
2022-12-16T14:20:54.855Z,17.50
2022-12-16T14:23:56.549Z,15.53
2022-12-16T14:26:43.681Z,17.07
2022-12-16T14:29:39.189Z,14.80
2022-12-16T14:32:46.510Z,13.73
2022-12-16T14:35:40.276Z,14.00
2022-12-16T14:38:32.364Z,13.83
2022-12-16T14:41:18.391Z,13.37
2022-12-16T14:44:04.738Z,13.50
2022-12-16T14:46:57.264Z,17.67
2022-12-16T14:49:46.325Z,16.80
2022-12-16T14:52:42.939Z,16.03
2022-12-16T14:55:44.636Z,14.03
2022-12-16T14:58:37.291Z,14.30
2022-12-16T15:01:38.506Z,16.97
2022-12-16T15:04:27.736Z,18.53
2022-12-16T15:07:14.240Z,12.90
2022-12-16T15:10:04.725Z,14.82
2022-12-16T15:12:53.435Z,13.30
2022-12-16T15:16:00.933Z,12.97
2022-12-16T15:18:52.703Z,15.00
2022-12-16T15:21:38.650Z,15.70
2022-12-16T15:24:39.051Z,17.10
2022-12-16T15:27:40.482Z,15.43
2022-12-16T15:31:01.896Z,16.87
2022-12-16T15:33:49.898Z,16.80
2022-12-16T15:36:52.030Z,17.73
2022-12-16T15:39:55.318Z,15.90
2022-12-16T15:42:48.458Z,19.07
2022-12-16T15:45:42.775Z,16.23
2022-12-16T15:48:36.274Z,17.20
2022-12-16T15:51:42.156Z,17.00
2022-12-16T15:54:41.906Z,16.80
2022-12-16T15:57:49.851Z,16.47
2022-12-16T16:00:44.928Z,16.17
2022-12-16T16:03:57.531Z,17.33
2022-12-16T16:07:04.260Z,20.77
2022-12-16T16:09:50.707Z,20.83
2022-12-16T16:12:38.051Z,18.27
2022-12-16T16:15:25.790Z,15.23
2022-12-16T16:18:14.672Z,15.67
2022-12-16T16:21:01.107Z,15.13
2022-12-16T16:23:47.768Z,13.57
2022-12-16T16:26:35.800Z,13.47
2022-12-16T16:29:21.695Z,13.20
2022-12-16T16:32:08.409Z,15.32
2022-12-16T16:40:48.045Z,17.42
2022-12-16T16:43:35.015Z,14.90
2022-12-16T16:46:21.672Z,19.03
2022-12-16T16:49:11.095Z,19.93
2022-12-16T16:51:57.130Z,21.87
2022-12-16T16:54:43.674Z,21.67
2022-12-16T16:57:29.580Z,22.23
2022-12-16T17:00:15.911Z,18.95
2022-12-16T17:03:02.465Z,17.50
2022-12-16T17:05:49.072Z,16.90
2022-12-16T17:08:39.600Z,17.05
2022-12-16T17:11:39.737Z,15.63
2022-12-16T17:14:32.870Z,12.37
2022-12-16T17:17:19.019Z,13.90
2022-12-16T17:20:05.059Z,15.57
2022-12-16T17:25:37.173Z,16.33
2022-12-16T17:28:23.655Z,19.27
2022-12-16T17:31:09.677Z,18.37
2022-12-16T17:36:41.875Z,16.52
2022-12-16T17:39:28.244Z,19.00
2022-12-16T17:42:14.369Z,18.65
2022-12-16T17:45:01.096Z,18.37
2022-12-16T17:47:47.101Z,20.77
2022-12-16T17:50:33.628Z,20.12
2022-12-16T17:53:19.631Z,19.52
2022-12-16T17:56:05.998Z,21.25
2022-12-16T17:58:53.632Z,20.52
2022-12-16T18:01:40.212Z,20.57
2022-12-16T18:04:26.707Z,21.97
2022-12-16T18:07:12.938Z,22.50
2022-12-16T18:12:44.754Z,22.02
2022-12-16T18:15:31.191Z,18.65
2022-12-16T18:18:17.114Z,19.45
2022-12-16T18:21:03.463Z,20.12
2022-12-16T18:23:49.830Z,19.55
2022-12-16T18:29:21.599Z,18.98
2022-12-16T18:32:07.948Z,17.83
2022-12-16T18:34:54.027Z,18.92
2022-12-16T18:37:40.543Z,19.45
2022-12-16T18:40:27.562Z,18.83
2022-12-16T18:43:14.057Z,20.40
2022-12-16T18:46:00.013Z,22.83
2022-12-16T18:48:46.227Z,23.95
2022-12-16T18:51:32.146Z,24.80
2022-12-16T18:54:18.660Z,26.45
2022-12-16T18:57:04.545Z,29.63
2022-12-16T18:59:51.048Z,29.65
2022-12-16T19:02:37.262Z,27.90
2022-12-16T19:08:14.165Z,32.90
2022-12-16T19:11:00.896Z,33.60
2022-12-16T19:13:46.939Z,32.45
2022-12-16T19:16:34.334Z,33.57
2022-12-16T19:19:20.850Z,31.25
2022-12-16T19:22:07.268Z,33.60
2022-12-16T19:27:42.532Z,32.97
2022-12-16T19:30:29.100Z,32.17
2022-12-16T19:33:15.582Z,31.77
2022-12-16T19:36:01.560Z,33.38
2022-12-16T19:38:48.152Z,36.58
2022-12-16T19:41:35.009Z,35.50
2022-12-16T19:44:22.240Z,35.03
2022-12-16T19:47:09.269Z,35.93
2022-12-16T19:49:56.164Z,36.70
2022-12-16T19:55:28.911Z,37.43
2022-12-16T19:58:14.906Z,36.78
2022-12-16T20:01:01.647Z,36.33
2022-12-16T20:03:48.776Z,35.20
2022-12-16T20:06:35.116Z,35.67
2022-12-16T20:09:21.717Z,38.30
2022-12-16T20:12:07.883Z,38.08
2022-12-16T20:17:42.633Z,37.53
2022-12-16T20:23:14.441Z,39.13
2022-12-16T20:26:00.883Z,39.55
2022-12-16T20:28:46.925Z,38.97
2022-12-16T20:31:33.420Z,37.85
2022-12-16T20:34:19.537Z,40.35
2022-12-16T20:39:56.935Z,37.97
2022-12-16T20:42:44.341Z,41.50
2022-12-16T20:45:34.070Z,37.37
2022-12-16T20:48:22.907Z,43.13
2022-12-16T20:51:19.715Z,43.55
2022-12-16T20:54:09.162Z,39.40
2022-12-16T20:56:55.252Z,37.47
2022-12-16T20:59:42.542Z,38.03
2022-12-16T21:02:34.550Z,40.85
2022-12-16T21:05:21.533Z,38.97
2022-12-16T21:08:07.449Z,38.50
2022-12-16T21:10:55.991Z,39.20
2022-12-16T21:13:43.045Z,41.00
2022-12-16T21:16:29.621Z,39.07
2022-12-16T21:19:15.586Z,41.42
2022-12-16T21:22:02.075Z,38.47
2022-12-16T21:24:48.076Z,41.30
2022-12-16T21:27:34.312Z,40.05
2022-12-16T21:30:20.543Z,43.60
2022-12-16T21:35:55.976Z,39.43
2022-12-16T21:38:44.075Z,43.03
2022-12-16T21:41:30.663Z,46.90
2022-12-16T21:44:17.089Z,41.27
2022-12-16T21:47:03.112Z,46.75
2022-12-16T21:49:49.733Z,43.35
2022-12-16T21:52:35.817Z,42.40
2022-12-16T21:58:07.770Z,43.33
2022-12-16T22:00:57.491Z,49.67
2022-12-16T22:03:55.024Z,46.27
2022-12-16T22:06:48.248Z,45.80
2022-12-16T22:09:34.969Z,43.90
2022-12-16T22:12:20.987Z,43.90
2022-12-16T22:15:07.618Z,46.63
2022-12-16T22:17:58.325Z,44.45
2022-12-16T22:20:45.449Z,44.13
2022-12-16T22:23:31.395Z,44.75
2022-12-16T22:26:18.403Z,47.75
2022-12-16T22:29:04.730Z,44.43
2022-12-16T22:34:37.957Z,46.17
2022-12-16T22:40:09.717Z,47.55
2022-12-16T22:42:56.388Z,44.72
2022-12-16T22:48:30.947Z,44.78
2022-12-16T22:51:16.773Z,45.17
2022-12-16T22:54:03.170Z,45.05
2022-12-16T22:56:49.101Z,47.55
2022-12-16T22:59:35.548Z,47.03
2022-12-16T23:02:21.498Z,48.28
2022-12-16T23:05:08.071Z,46.70
2022-12-16T23:07:54.440Z,45.58
2022-12-16T23:10:42.782Z,47.83
2022-12-16T23:13:29.735Z,46.75
2022-12-16T23:16:16.426Z,47.87
2022-12-16T23:21:48.469Z,46.40
2022-12-16T23:24:34.518Z,46.45
2022-12-16T23:27:21.029Z,45.50
2022-12-16T23:30:07.485Z,46.90
2022-12-16T23:32:53.986Z,49.57
2022-12-16T23:35:39.919Z,46.15
2022-12-16T23:38:26.522Z,46.55
2022-12-16T23:41:16.543Z,45.83
2022-12-16T23:44:02.898Z,48.17
2022-12-16T23:46:48.881Z,46.47
2022-12-16T23:52:32.081Z,47.70
2022-12-16T23:58:04.208Z,47.33
